Terminal Aerodrome Forecast
Issued by NWS

Home | Current Version | Previous Version | Text Only | Print | Product List | Glossary On
Versions: 1 2 3 4 5 6 7 8 9 10 11 12 13 14 15 16 17 18 19 20 21 22 23 24
519
FTUS43 KGRR 172259 AAA
TAFAZO
TAF AMD
KAZO 172259Z 1723/1818 16010G18KT P6SM -SHRA BKN035
     FM180000 16012G20KT P6SM -SHRA VCTS OVC040CB
     FM180300 18011KT 4SM -RA OVC025
     FM180600 19009KT 2SM -RA BR OVC004
     FM180900 16003KT 1 1/2SM -RA BR OVC004
     FM181500 01008KT 1/2SM -RA FG OVC002=

USA.gov is the U.S. government's official web portal to all federal, state and local government web resources and services.